Time;durP1;ratioP1;P1;durP2;ratioP2;P2;SDS_P1;SDS_P2;PMS_P1;PMS_P2;Temp;Humidity;BMP_temperature;BMP_pressure;BME280_temperature;BME280_humidity;BME280_pressure;Samples;Min_cycle;Max_cycle;Signal;HPM_P1;HPM_P2
2020/12/03 00:00:33;;;;;;;47.37;28.63;;;;;;;1.27;60.34;100336.72;5046965;22;20053;-78
2020/12/03 00:03:02;;;;;;;47.27;27.83;;;;;;;0.85;60.18;100294.34;5041467;28;20030;-77
2020/12/03 00:05:28;;;;;;;42.63;24.87;;;;;;;0.73;60.43;100278.66;5049588;22;20033;-77
2020/12/03 00:07:56;;;;;;;39.17;24.60;;;;;;;1.23;60.54;100356.88;5041561;28;20487;-77
2020/12/03 00:10:22;;;;;;;37.87;24.30;;;;;;;1.25;60.46;100360.22;5023830;28;20072;-77
2020/12/03 00:13:24;;;;;;;35.77;23.30;;;;;;;1.05;60.09;100342.47;5039831;28;20029;-77
2020/12/03 00:15:53;;;;;;;42.00;25.17;;;;;;;0.90;60.37;100336.47;4941635;29;20043;-77
2020/12/03 00:18:19;;;;;;;37.20;23.47;;;;;;;1.08;60.65;100378.69;5024019;28;20045;-77
2020/12/03 00:20:45;;;;;;;39.90;21.67;;;;;;;0.72;60.52;100314.22;5040432;28;20022;-78
2020/12/03 00:23:10;;;;;;;33.73;20.67;;;;;;;1.01;60.46;100351.41;5044507;23;20348;-78
2020/12/03 00:25:35;;;;;;;31.67;19.53;;;;;;;1.12;60.33;100374.13;5059674;28;20028;-78
2020/12/03 00:28:01;;;;;;;35.07;20.23;;;;;;;0.99;60.41;100355.03;5070278;22;20049;-78
2020/12/03 00:30:27;;;;;;;33.17;18.70;;;;;;;1.20;60.25;100390.06;5070014;22;20166;-76
2020/12/03 00:32:54;;;;;;;32.77;20.20;;;;;;;0.71;60.27;100316.91;5059049;28;20036;-77
2020/12/03 00:35:22;;;;;;;27.33;17.80;;;;;;;1.05;60.62;100381.47;5042741;28;20028;-77
2020/12/03 00:37:49;;;;;;;31.10;19.50;;;;;;;0.63;60.44;100313.03;5042978;28;20107;-77
2020/12/03 00:40:15;;;;;;;27.20;17.77;;;;;;;1.11;60.42;100369.84;5050018;22;20398;-77
2020/12/03 00:42:41;;;;;;;28.53;18.43;;;;;;;0.92;60.63;100360.63;5042896;28;20021;-77
2020/12/03 00:45:08;;;;;;;31.97;18.73;;;;;;;1.21;60.35;100374.38;5067600;22;20045;-78
2020/12/03 00:47:34;;;;;;;28.30;17.07;;;;;;;1.07;60.43;100343.22;5067733;22;20389;-77
2020/12/03 00:50:00;;;;;;;28.83;16.97;;;;;;;1.26;60.21;100376.66;5063937;28;20058;-78
2020/12/03 00:52:25;;;;;;;28.77;17.33;;;;;;;0.85;60.42;100316.91;5063869;28;20037;-77
2020/12/03 00:54:52;;;;;;;28.30;18.17;;;;;;;1.26;60.43;100390.50;5045732;28;20107;-77
2020/12/03 00:57:17;;;;;;;29.43;17.17;;;;;;;0.90;60.66;100323.47;5063734;28;20036;-78
2020/12/03 00:59:44;;;;;;;28.63;17.93;;;;;;;0.79;60.78;100320.72;5062014;28;20028;-78
2020/12/03 01:02:13;;;;;;;26.73;16.13;;;;;;;1.29;60.78;100381.69;5071367;22;20067;-77
2020/12/03 01:04:39;;;;;;;29.73;19.57;;;;;;;1.27;60.71;100375.75;5062361;28;20029;-75
2020/12/03 01:07:06;;;;;;;26.90;17.67;;;;;;;1.28;60.76;100369.59;5057260;28;20033;-74
2020/12/03 01:09:32;;;;;;;30.00;17.23;;;;;;;1.24;60.98;100353.34;5057161;28;20029;-75
2020/12/03 01:11:57;;;;;;;29.77;18.50;;;;;;;1.28;60.69;100369.59;5058504;28;20024;-77
2020/12/03 01:14:23;;;;;;;30.33;19.83;;;;;;;1.41;60.83;100370.47;5059841;28;20087;-76
2020/12/03 01:16:48;;;;;;;31.77;19.77;;;;;;;1.28;60.89;100338.38;5042369;28;20033;-77
2020/12/03 01:19:14;;;;;;;30.77;20.43;;;;;;;1.52;60.66;100367.22;5057997;28;20150;-78
2020/12/03 01:21:40;;;;;;;27.67;18.97;;;;;;;1.52;60.74;100368.03;5058936;28;20444;-76
2020/12/03 01:24:05;;;;;;;28.90;19.17;;;;;;;1.54;60.47;100373.16;5040257;28;20064;-76
2020/12/03 01:26:31;;;;;;;27.10;17.50;;;;;;;1.36;60.65;100343.94;5057646;28;20086;-76
2020/12/03 01:28:56;;;;;;;33.03;19.80;;;;;;;1.41;60.65;100341.84;5057910;28;20032;-76
2020/12/03 01:31:22;;;;;;;33.93;20.97;;;;;;;1.52;60.92;100357.63;5057509;28;20055;-76
2020/12/03 01:33:47;;;;;;;37.00;22.57;;;;;;;1.49;60.64;100357.00;5058455;28;20029;-76
2020/12/03 01:36:14;;;;;;;31.80;19.20;;;;;;;1.37;61.01;100337.78;5057062;28;20447;-76
2020/12/03 01:38:41;;;;;;;36.60;21.67;;;;;;;1.13;61.08;100297.75;5057756;28;20477;-76
2020/12/03 01:41:06;;;;;;;33.60;21.27;;;;;;;0.87;61.19;100270.84;5057105;28;20029;-75
2020/12/03 01:43:32;;;;;;;33.67;20.93;;;;;;;1.36;61.42;100349.13;5057611;28;20028;-76
2020/12/03 01:46:02;;;;;;;35.03;21.23;;;;;;;1.38;61.59;100349.03;5057261;28;20404;-75
2020/12/03 01:48:42;;;;;;;30.70;20.03;;;;;;;1.34;61.86;100338.00;5056619;28;20033;-75
2020/12/03 01:51:15;;;;;;;31.10;19.53;;;;;;;1.29;61.49;100324.44;5058880;28;20090;-77
2020/12/03 01:53:41;;;;;;;26.13;17.67;;;;;;;1.49;61.33;100357.84;5060257;28;20063;-77
2020/12/03 01:56:29;;;;;;;27.37;17.10;;;;;;;1.08;61.58;100295.47;5060739;28;20036;-76
2020/12/03 01:58:55;;;;;;;26.23;15.47;;;;;;;1.37;61.71;100344.75;5059427;28;20053;-76
2020/12/03 02:01:21;;;;;;;27.17;16.97;;;;;;;1.47;61.76;100348.44;5059624;28;20032;-77
2020/12/03 02:03:48;;;;;;;23.87;15.50;;;;;;;0.90;62.00;100252.47;5060157;28;20438;-76
2020/12/03 02:06:35;;;;;;;25.37;15.77;;;;;;;1.51;61.92;100340.34;5060080;28;20025;-76
2020/12/03 02:09:03;;;;;;;23.50;14.83;;;;;;;1.44;61.85;100344.25;5060738;28;20053;-78
2020/12/03 02:11:28;;;;;;;56.87;29.27;;;;;;;1.42;61.99;100342.69;5061009;28;20410;-77
2020/12/03 02:13:59;;;;;;;45.93;24.40;;;;;;;1.43;62.06;100334.78;5058782;28;20083;-76
2020/12/03 02:16:28;;;;;;;36.93;22.03;;;;;;;1.50;61.94;100325.66;5059531;28;20029;-76
2020/12/03 02:18:53;;;;;;;28.20;16.50;;;;;;;1.46;62.04;100326.78;5059804;28;20095;-77
2020/12/03 02:21:19;;;;;;;30.03;18.47;;;;;;;1.22;62.04;100271.16;5058849;28;20107;-77
2020/12/03 02:23:45;;;;;;;24.87;16.90;;;;;;;1.31;61.98;100262.75;5060701;28;20029;-77
2020/12/03 02:26:11;;;;;;;32.10;17.60;;;;;;;1.73;61.77;100325.91;5068459;22;20052;-77
2020/12/03 02:28:36;;;;;;;29.00;16.73;;;;;;;1.77;61.61;100333.41;5068344;22;20363;-77
2020/12/03 02:31:03;;;;;;;30.17;18.57;;;;;;;1.63;61.58;100293.63;5061505;28;20086;-76
2020/12/03 02:33:28;;;;;;;29.13;17.50;;;;;;;1.79;61.68;100322.91;5061573;28;20123;-76
2020/12/03 02:35:54;;;;;;;28.40;18.03;;;;;;;1.72;61.57;100291.22;5062016;28;20056;-77
2020/12/03 02:41:10;;;;;;;35.97;19.37;;;;;;;1.79;61.70;100297.69;4979905;28;20126;-78
2020/12/03 02:43:37;;;;;;;41.47;22.17;;;;;;;1.94;61.99;100314.06;4998036;28;20078;-77
2020/12/03 02:46:03;;;;;;;38.23;21.80;;;;;;;1.89;61.79;100306.53;4981329;28;20026;-77
2020/12/03 02:48:28;;;;;;;38.40;22.80;;;;;;;1.28;61.62;100224.75;4995368;28;20019;-77
2020/12/03 02:50:54;;;;;;;38.40;21.27;;;;;;;1.82;61.92;100288.84;4980529;28;20357;-75
2020/12/03 02:53:19;;;;;;;33.63;21.30;;;;;;;2.01;62.13;100311.84;4981032;28;20030;-78
2020/12/03 02:55:44;;;;;;;30.90;20.20;;;;;;;1.41;61.93;100229.97;4981573;28;20034;-77
2020/12/03 02:58:10;;;;;;;38.67;22.10;;;;;;;2.08;61.80;100324.34;5044436;22;20048;-76
2020/12/03 03:00:35;;;;;;;40.47;22.53;;;;;;;1.73;61.69;100266.03;5039192;28;20393;-76
2020/12/03 03:03:00;;;;;;;39.23;23.33;;;;;;;1.95;61.98;100299.25;5057433;28;20052;-76
2020/12/03 03:05:26;;;;;;;38.20;23.07;;;;;;;2.16;61.82;100323.81;5065010;22;20472;-76
2020/12/03 03:07:51;;;;;;;34.57;21.10;;;;;;;2.15;61.71;100327.38;5040230;28;20031;-76
2020/12/03 03:10:21;;;;;;;35.30;22.93;;;;;;;2.16;62.01;100329.03;5041197;28;20052;-77
2020/12/03 03:12:47;;;;;;;29.20;18.40;;;;;;;1.81;61.94;100264.56;5060366;28;20028;-77
2020/12/03 03:15:13;;;;;;;32.47;18.27;;;;;;;1.58;61.97;100213.25;5060594;28;20043;-77
2020/12/03 03:17:38;;;;;;;29.30;19.47;;;;;;;2.10;61.99;100314.66;5059882;28;20032;-77
2020/12/03 03:20:03;;;;;;;30.70;18.97;;;;;;;2.00;62.21;100291.97;5066720;22;20049;-77
2020/12/03 03:22:29;;;;;;;30.10;19.73;;;;;;;2.22;61.79;100315.59;5040724;28;20094;-78
2020/12/03 03:24:54;;;;;;;31.10;20.57;;;;;;;1.66;62.09;100242.19;5058999;28;20089;-77
2020/12/03 03:27:19;;;;;;;37.27;22.10;;;;;;;1.85;62.46;100280.81;5066472;22;20414;-76
2020/12/03 03:29:45;;;;;;;57.03;30.97;;;;;;;1.82;62.27;100270.63;5057946;28;20033;-77
2020/12/03 03:32:10;;;;;;;58.50;29.97;;;;;;;2.13;62.62;100317.06;5065936;22;20045;-78
2020/12/03 03:34:35;;;;;;;51.27;27.80;;;;;;;2.18;62.40;100306.31;5041249;28;20025;-77
2020/12/03 03:37:02;;;;;;;41.33;23.33;;;;;;;2.21;62.40;100313.94;5066046;22;20049;-77
2020/12/03 03:39:28;;;;;;;36.87;23.17;;;;;;;2.05;62.31;100279.44;5059603;28;20056;-77
2020/12/03 03:41:54;;;;;;;39.30;23.40;;;;;;;2.15;62.62;100293.50;5060165;28;20032;-77
2020/12/03 03:44:21;;;;;;;34.93;21.43;;;;;;;2.21;62.52;100316.53;5042404;28;20056;-77
2020/12/03 03:46:47;;;;;;;34.03;20.93;;;;;;;2.03;62.30;100283.94;5058408;28;20048;-77
2020/12/03 03:49:12;;;;;;;32.03;19.67;;;;;;;1.80;62.54;100236.88;5060176;22;20040;-78
2020/12/03 03:51:38;;;;;;;30.20;19.93;;;;;;;2.04;62.29;100276.03;5039789;28;20017;-77
2020/12/03 03:54:04;;;;;;;35.60;19.83;;;;;;;2.29;62.54;100303.00;5022590;28;20120;-77
2020/12/03 03:56:30;;;;;;;28.50;18.10;;;;;;;2.20;62.81;100301.84;5039320;28;20082;-77
2020/12/03 03:58:55;;;;;;;39.87;23.10;;;;;;;2.35;62.54;100316.44;5038656;23;20041;-77
2020/12/03 04:01:20;;;;;;;32.23;20.83;;;;;;;2.27;62.48;100303.13;5040078;28;20454;-77
2020/12/03 04:03:46;;;;;;;32.43;19.90;;;;;;;1.94;62.93;100248.13;5055241;28;20022;-78
2020/12/03 04:06:11;;;;;;;35.47;21.33;;;;;;;2.27;62.82;100297.91;5055806;28;20049;-77
2020/12/03 04:08:36;;;;;;;92.80;44.37;;;;;;;2.12;62.86;100273.72;5040162;28;20025;-77
2020/12/03 04:11:02;;;;;;;81.50;37.93;;;;;;;1.96;62.94;100287.91;5038929;28;20053;-76
2020/12/03 04:13:27;;;;;;;49.67;28.00;;;;;;;1.86;63.03;100256.44;5039366;28;20032;-77
2020/12/03 04:15:53;;;;;;;44.43;25.17;;;;;;;1.48;62.58;100180.97;5056229;28;20027;-77
2020/12/03 04:20:43;;;;;;;36.97;23.80;;;;;;;2.12;63.19;100286.75;5066726;23;20052;-76
2020/12/03 04:23:10;;;;;;;35.37;24.13;;;;;;;2.24;62.74;100298.13;5063990;28;20021;-77
2020/12/03 04:25:35;;;;;;;40.77;24.10;;;;;;;1.85;63.26;100232.19;5066607;28;20112;-76
2020/12/03 04:28:01;;;;;;;37.47;24.83;;;;;;;2.28;63.30;100299.56;5067218;22;20069;-77
2020/12/03 04:30:26;;;;;;;43.20;27.17;;;;;;;1.64;63.22;100191.19;5068437;28;20041;-78
2020/12/03 04:32:52;;;;;;;47.33;29.23;;;;;;;1.98;63.32;100244.34;5067108;28;20030;-77
2020/12/03 04:35:18;;;;;;;47.23;28.90;;;;;;;1.75;63.30;100219.91;5066845;22;20037;-78
2020/12/03 04:37:48;;;;;;;43.57;27.13;;;;;;;2.12;63.33;100262.47;5044603;28;20108;-78
2020/12/03 04:40:44;;;;;;;44.93;25.53;;;;;;;2.20;63.69;100276.63;5067498;22;20048;-77
2020/12/03 04:43:39;;;;;;;56.10;31.20;;;;;;;2.37;63.40;100304.13;5022253;23;20041;-77
2020/12/03 04:46:26;;;;;;;56.27;32.33;;;;;;;2.42;63.60;100301.22;5040784;28;20045;-78
2020/12/03 04:49:24;;;;;;;44.83;28.00;;;;;;;2.38;63.45;100303.19;5061127;28;20021;-77
2020/12/03 04:51:59;;;;;;;64.27;34.57;;;;;;;2.40;63.44;100314.34;5040460;28;20383;-77
2020/12/03 04:54:31;;;;;;;59.87;34.23;;;;;;;2.43;63.57;100313.28;5067263;22;20045;-78
2020/12/03 04:57:12;;;;;;;67.77;40.60;;;;;;;2.46;63.44;100316.53;5057473;22;20068;-78
2020/12/03 04:59:57;;;;;;;73.53;45.33;;;;;;;2.50;63.54;100307.53;5072166;22;20107;-78
2020/12/03 05:02:53;;;;;;;68.90;40.60;;;;;;;2.52;63.47;100305.66;5064487;28;20036;-77
2020/12/03 05:07:48;;;;;;;58.42;34.17;;;;;;;2.39;63.42;100286.63;5078211;22;20060;-77
2020/12/03 05:10:32;;;;;;;62.00;35.87;;;;;;;2.60;63.48;100319.94;5064336;28;20056;-78
2020/12/03 05:12:58;;;;;;;56.83;34.17;;;;;;;2.04;63.59;100216.13;5046844;28;20025;-77
2020/12/03 05:15:31;;;;;;;52.83;33.27;;;;;;;2.59;63.35;100308.66;5062665;22;20049;-77
2020/12/03 05:18:25;;;;;;;49.13;31.73;;;;;;;2.73;63.61;100307.69;5044544;28;20026;-78
2020/12/03 05:20:53;;;;;;;59.10;35.83;;;;;;;2.64;63.60;100300.53;5055702;22;20076;-77
2020/12/03 05:25:46;;;;;;;54.00;33.72;;;;;;;2.80;63.39;100321.94;5068744;22;20137;-78
2020/12/03 05:28:32;;;;;;;51.60;33.00;;;;;;;2.81;63.83;100321.00;5069656;22;20496;-78
2020/12/03 05:31:23;;;;;;;47.97;32.13;;;;;;;2.65;63.34;100289.16;5069347;22;20391;-77
2020/12/03 05:33:48;;;;;;;46.37;30.77;;;;;;;2.91;63.62;100321.19;5044328;28;20093;-77
2020/12/03 05:36:20;;;;;;;51.73;34.07;;;;;;;2.97;63.07;100318.97;5062365;28;20318;-78
2020/12/03 05:38:45;;;;;;;53.40;36.20;;;;;;;3.00;63.44;100313.56;5062501;28;20082;-77
2020/12/03 05:41:15;;;;;;;50.93;33.57;;;;;;;3.03;63.76;100328.16;5069443;22;20052;-77
2020/12/03 05:43:40;;;;;;;44.43;28.53;;;;;;;3.12;63.45;100322.28;5061937;28;20047;-77
2020/12/03 05:46:07;;;;;;;24.20;17.67;;;;;;;3.18;63.47;100327.88;5069734;22;20053;-77
2020/12/03 05:48:32;;;;;;;26.90;18.30;;;;;;;3.24;63.35;100323.16;5052881;22;20033;-78
2020/12/03 05:50:57;;;;;;;31.73;20.40;;;;;;;1.83;62.95;100101.28;5043368;28;20036;-78
2020/12/03 05:53:27;;;;;;;32.40;21.80;;;;;;;3.23;63.41;100308.44;5061055;28;20024;-77
2020/12/03 05:56:11;;;;;;;28.10;19.43;;;;;;;3.34;63.37;100339.81;5059942;28;20028;-77
2020/12/03 05:58:36;;;;;;;28.10;19.53;;;;;;;3.27;62.92;100321.16;5059415;28;20035;-76
2020/12/03 06:01:15;;;;;;;21.50;15.13;;;;;;;2.93;63.61;100269.75;5068478;22;20053;-77
2020/12/03 06:03:46;;;;;;;25.20;17.70;;;;;;;3.35;63.32;100341.47;5061834;28;20396;-78
2020/12/03 06:06:33;;;;;;;27.55;18.25;;;;;;;3.34;63.31;100345.03;5061704;28;20032;-78
2020/12/03 06:09:16;;;;;;;26.37;18.53;;;;;;;2.79;63.56;100250.72;5062368;28;20029;-78
2020/12/03 06:11:51;;;;;;;31.40;19.93;;;;;;;3.37;63.06;100336.97;5044310;28;20120;-77
2020/12/03 06:14:41;;;;;;;27.67;20.00;;;;;;;3.30;63.46;100333.16;5065213;22;20080;-77
2020/12/03 06:17:32;;;;;;;33.53;21.73;;;;;;;3.30;63.54;100340.97;5054701;28;20025;-77
2020/12/03 06:20:21;;;;;;;33.95;21.10;;;;;;;3.09;63.50;100312.06;5038116;28;20033;-75
2020/12/03 06:23:15;;;;;;;21.33;15.43;;;;;;;3.25;63.87;100338.69;5049272;22;20041;-77
2020/12/03 06:25:49;;;;;;;20.50;14.57;;;;;;;3.23;63.76;100339.75;5052582;28;20048;-77
2020/12/03 06:28:39;;;;;;;22.77;14.20;;;;;;;3.20;64.13;100340.81;5061141;28;20076;-77
2020/12/03 06:31:40;;;;;;;21.10;14.17;;;;;;;2.67;63.61;100261.19;5061800;28;20039;-77
2020/12/03 06:34:26;;;;;;;20.80;13.87;;;;;;;3.24;63.89;100349.25;5058924;28;20033;-77
2020/12/03 06:36:58;;;;;;;19.77;14.33;;;;;;;3.31;63.58;100343.47;5057966;28;20489;-76
2020/12/03 06:39:54;;;;;;;21.27;15.60;;;;;;;3.39;63.71;100337.69;5059965;28;20030;-77
2020/12/03 06:42:28;;;;;;;21.73;16.87;;;;;;;3.44;63.47;100338.19;5060248;22;20122;-77
2020/12/03 06:45:52;;;;;;;24.63;16.53;;;;;;;3.48;63.38;100339.63;5059603;28;20029;-77
2020/12/03 06:48:46;;;;;;;24.03;14.93;;;;;;;3.48;63.63;100340.47;4955015;29;20042;-75
2020/12/03 06:51:24;;;;;;;23.40;15.77;;;;;;;3.45;63.09;100338.06;5034237;28;20048;-77
2020/12/03 06:54:54;;;;;;;24.90;16.90;;;;;;;3.43;63.13;100328.69;5046695;28;20055;-77
2020/12/03 07:00:22;;;;;;;25.05;17.10;;;;;;;3.37;63.17;100332.59;5045247;22;20057;-74
2020/12/03 07:03:09;;;;;;;23.70;16.43;;;;;;;3.40;62.80;100326.31;5035138;28;20428;-74
2020/12/03 07:06:05;;;;;;;30.40;19.20;;;;;;;3.38;63.12;100326.41;5034462;28;20033;-75
2020/12/03 07:08:52;;;;;;;26.23;17.63;;;;;;;3.31;63.49;100325.19;5035139;28;20029;-75
2020/12/03 07:11:36;;;;;;;33.50;20.50;;;;;;;3.32;63.36;100333.88;5000134;28;20026;-74
2020/12/03 07:14:23;;;;;;;32.23;22.27;;;;;;;3.39;63.11;100346.34;5033894;28;20425;-74
2020/12/03 07:17:21;;;;;;;30.43;19.80;;;;;;;3.40;63.22;100340.19;5043821;22;20069;-77
2020/12/03 07:20:13;;;;;;;26.23;18.27;;;;;;;3.42;62.73;100340.06;5021291;28;20042;-77
2020/12/03 07:23:03;;;;;;;23.90;16.53;;;;;;;3.11;62.74;100295.34;5024464;23;20046;-76
2020/12/03 07:25:29;;;;;;;22.50;15.03;;;;;;;3.33;62.54;100332.91;5026928;22;20036;-77
2020/12/03 07:28:18;;;;;;;22.90;14.97;;;;;;;3.36;62.74;100350.97;5074086;28;20032;-76
2020/12/03 07:30:48;;;;;;;21.70;15.63;;;;;;;2.63;63.49;100264.97;5060208;28;20025;-77
2020/12/03 07:33:36;;;;;;;24.70;17.17;;;;;;;3.26;63.69;100370.84;5054752;28;20340;-76
2020/12/03 07:36:20;;;;;;;26.37;18.33;;;;;;;3.33;63.38;100346.81;5052532;28;20343;-75
2020/12/03 07:38:55;;;;;;;28.93;18.73;;;;;;;3.17;63.44;100310.56;5053821;28;20040;-75
2020/12/03 07:41:23;;;;;;;28.43;19.27;;;;;;;3.23;62.85;100322.31;5050826;28;20029;-75
2020/12/03 07:44:03;;;;;;;27.47;19.40;;;;;;;2.87;63.22;100260.59;5051677;28;20025;-75
2020/12/03 07:46:29;;;;;;;30.73;20.90;;;;;;;3.48;63.43;100358.72;5051211;28;20122;-75
2020/12/03 07:48:55;;;;;;;25.37;17.17;;;;;;;3.29;63.15;100337.53;5054238;28;20037;-77
2020/12/03 07:51:21;;;;;;;25.27;17.33;;;;;;;3.51;63.05;100363.72;5055483;28;20415;-75
2020/12/03 07:54:16;;;;;;;27.27;18.43;;;;;;;3.54;62.72;100369.66;5055010;28;20049;-76
2020/12/03 07:56:46;;;;;;;38.23;24.33;;;;;;;3.51;62.93;100382.00;5035287;28;20041;-76
2020/12/03 07:59:24;;;;;;;36.47;22.67;;;;;;;3.55;62.32;100374.78;5057318;28;20033;-76
2020/12/03 08:01:50;;;;;;;32.80;23.27;;;;;;;2.69;62.58;100230.63;5059467;28;20029;-78
2020/12/03 08:04:42;;;;;;;35.10;23.93;;;;;;;3.49;62.46;100363.00;5060535;28;20389;-77
2020/12/03 08:07:07;;;;;;;30.50;22.23;;;;;;;3.66;62.45;100377.44;5061036;28;20037;-75
2020/12/03 08:09:46;;;;;;;26.80;18.23;;;;;;;3.62;62.51;100364.72;5056049;28;20021;-75
2020/12/03 08:12:14;;;;;;;25.47;18.10;;;;;;;3.64;62.39;100373.25;5056086;28;20094;-78
2020/12/03 08:14:42;;;;;;;26.87;18.13;;;;;;;3.57;62.54;100370.28;5061944;28;20048;-77
2020/12/03 08:17:16;;;;;;;23.23;16.77;;;;;;;3.52;62.97;100369.78;5057942;28;20033;-78
2020/12/03 08:19:43;;;;;;;30.57;19.13;;;;;;;3.55;63.16;100369.56;5062147;28;20040;-78
2020/12/03 08:22:34;;;;;;;29.20;20.30;;;;;;;3.62;62.82;100370.75;5058991;28;20036;-77
2020/12/03 08:25:05;;;;;;;24.70;17.07;;;;;;;3.62;62.68;100367.31;5060938;28;20316;-77
2020/12/03 08:27:31;;;;;;;25.60;15.53;;;;;;;3.49;62.95;100352.56;5064018;28;20354;-78
2020/12/03 08:29:56;;;;;;;27.73;18.17;;;;;;;3.61;62.56;100363.03;5058696;28;20063;-75
2020/12/03 08:32:21;;;;;;;31.73;20.70;;;;;;;3.66;63.10;100368.75;5058019;28;20427;-77
2020/12/03 08:34:46;;;;;;;28.77;20.60;;;;;;;3.70;62.73;100359.75;5059879;28;20040;-78
2020/12/03 08:37:17;;;;;;;30.57;20.97;;;;;;;3.73;62.86;100360.38;5054928;22;20045;-78
2020/12/03 08:39:46;;;;;;;35.17;24.47;;;;;;;3.55;62.38;100329.56;5043530;28;20159;-76
2020/12/03 08:42:12;;;;;;;33.07;22.90;;;;;;;3.86;62.65;100362.09;5015915;28;20025;-76
2020/12/03 08:44:40;;;;;;;32.00;21.50;;;;;;;3.73;61.97;100338.66;5036388;28;20040;-75
2020/12/03 08:47:15;;;;;;;28.53;18.37;;;;;;;3.85;62.38;100357.81;5047007;28;20116;-77
2020/12/03 08:49:44;;;;;;;27.03;17.03;;;;;;;3.89;62.01;100346.19;5035088;28;20389;-78
2020/12/03 08:52:10;;;;;;;25.13;17.83;;;;;;;3.83;62.58;100324.78;5026996;28;20035;-78
2020/12/03 08:54:36;;;;;;;28.70;19.77;;;;;;;3.86;62.52;100322.91;5037164;28;20473;-76
2020/12/03 08:57:09;;;;;;;27.63;19.27;;;;;;;4.00;62.26;100340.97;5045354;28;20033;-78
2020/12/03 08:59:38;;;;;;;27.93;20.00;;;;;;;3.82;62.28;100319.69;5058300;28;20113;-78
2020/12/03 09:02:09;;;;;;;32.43;22.70;;;;;;;3.69;61.92;100290.19;5042048;28;20024;-76
2020/12/03 09:04:36;;;;;;;33.43;22.97;;;;;;;3.47;61.74;100254.41;5040092;28;20024;-78
2020/12/03 09:07:07;;;;;;;33.63;23.83;;;;;;;4.04;61.93;100331.94;5061313;22;20045;-78
2020/12/03 09:09:36;;;;;;;34.07;24.00;;;;;;;4.09;61.56;100332.44;5020234;28;20029;-77
2020/12/03 09:12:02;;;;;;;49.03;33.00;;;;;;;4.14;61.44;100330.28;5037417;28;20087;-76
2020/12/03 09:14:32;;;;;;;35.00;24.47;;;;;;;3.96;61.71;100293.34;5056673;28;20083;-78
2020/12/03 09:17:05;;;;;;;40.97;25.50;;;;;;;3.84;61.66;100273.38;5018792;28;20042;-79
2020/12/03 09:19:30;;;;;;;42.20;26.03;;;;;;;4.08;61.38;100304.63;5018736;28;20351;-78
2020/12/03 09:21:57;;;;;;;37.80;25.13;;;;;;;4.16;61.58;100315.31;5002141;28;20115;-79
2020/12/03 09:24:25;;;;;;;34.37;25.40;;;;;;;4.29;61.25;100304.75;5017657;28;20021;-78
2020/12/03 09:26:51;;;;;;;37.93;26.10;;;;;;;3.97;61.05;100257.59;5041445;23;20385;-78
2020/12/03 09:29:21;;;;;;;34.83;23.97;;;;;;;3.52;60.85;100168.75;5079108;28;20120;-80
2020/12/03 09:31:51;;;;;;;35.97;22.87;;;;;;;4.27;60.78;100320.56;5048512;23;20454;-78
2020/12/03 09:34:17;;;;;;;43.70;29.57;;;;;;;3.82;60.94;100218.66;5054800;28;20342;-78
2020/12/03 09:36:43;;;;;;;42.50;28.37;;;;;;;3.67;61.28;100239.84;5053823;28;20095;-79
2020/12/03 09:39:09;;;;;;;40.37;26.77;;;;;;;3.59;61.17;100193.44;5054975;28;20037;-79
2020/12/03 09:41:35;;;;;;;46.07;27.90;;;;;;;4.32;61.01;100292.28;5058722;28;20131;-79
2020/12/03 09:44:06;;;;;;;43.90;26.17;;;;;;;4.11;61.20;100250.34;5071569;23;20455;-79
2020/12/03 09:46:38;;;;;;;42.90;29.00;;;;;;;3.95;61.62;100238.59;5079303;28;20028;-79
2020/12/03 09:49:04;;;;;;;37.40;24.85;;;;;;;4.04;61.49;100249.16;5075382;28;20025;-78
2020/12/03 09:51:33;;;;;;;39.60;26.20;;;;;;;3.49;61.59;100174.22;5065901;28;20346;-78
2020/12/03 09:54:01;;;;;;;37.87;24.77;;;;;;;4.23;61.47;100264.25;5033596;22;20042;-78
2020/12/03 09:56:26;;;;;;;45.37;29.33;;;;;;;4.17;61.35;100284.78;5009997;28;20041;-78
2020/12/03 09:58:59;;;;;;;53.43;34.37;;;;;;;3.92;61.51;100220.56;5007209;28;20041;-77
2020/12/03 10:02:05;;;;;;;44.27;30.27;;;;;;;4.26;61.45;100268.41;5016379;28;20354;-77
2020/12/03 10:04:52;;;;;;;44.20;28.77;;;;;;;4.34;61.58;100261.63;5013444;28;20041;-78
2020/12/03 10:08:05;;;;;;;38.63;24.57;;;;;;;4.39;60.88;100269.94;5009566;28;20105;-75
2020/12/03 10:10:54;;;;;;;;;;;;;;;4.34;61.55;100264.22;5009627;28;20117;-78
2020/12/03 10:13:56;;;;;;;43.30;28.93;;;;;;;4.39;61.04;100240.34;5017566;28;19913;-78
2020/12/03 10:16:23;;;;;;;52.33;32.97;;;;;;;4.56;60.87;100246.88;5031110;23;20363;-78
2020/12/03 10:18:51;;;;;;;51.43;34.03;;;;;;;4.51;60.50;100236.78;5058092;28;20036;-78
2020/12/03 10:21:26;;;;;;;54.33;34.50;;;;;;;4.17;60.52;100188.09;5056636;28;20028;-79
2020/12/03 10:24:10;;;;;;;54.97;34.33;;;;;;;4.44;60.63;100220.72;5039997;28;20025;-77
2020/12/03 10:26:48;;;;;;;55.90;35.10;;;;;;;4.54;60.67;100240.94;5038540;28;20025;-78
2020/12/03 10:29:32;;;;;;;55.20;36.90;;;;;;;4.68;60.63;100251.13;5056258;28;20112;-78
2020/12/03 10:32:12;;;;;;;59.37;38.13;;;;;;;4.22;60.15;100172.88;5057328;28;20033;-79
2020/12/03 10:34:40;;;;;;;56.73;37.23;;;;;;;4.40;60.23;100210.63;5058836;28;20029;-79
2020/12/03 10:37:37;;;;;;;127.60;78.70;;;;;;;4.62;60.47;100225.47;5057499;28;20111;-77
2020/12/03 10:40:18;;;;;;;72.80;45.10;;;;;;;4.78;60.43;100244.19;5054309;22;20049;-76
2020/12/03 10:42:51;;;;;;;64.67;40.67;;;;;;;4.65;59.99;100218.19;5038180;28;20033;-78
2020/12/03 10:45:22;;;;;;;67.37;40.13;;;;;;;4.74;59.97;100222.69;5039229;28;20456;-79
2020/12/03 10:48:00;;;;;;;66.13;40.40;;;;;;;4.88;60.02;100242.50;5041131;28;20057;-78
2020/12/03 10:50:50;;;;;;;69.50;43.93;;;;;;;4.78;60.28;100229.34;5158646;22;20055;-79
2020/12/03 10:53:27;;;;;;;71.07;43.67;;;;;;;4.81;60.30;100246.56;5038454;28;20043;-78
2020/12/03 10:56:03;;;;;;;66.23;40.33;;;;;;;4.81;60.07;100243.13;5052757;28;20439;-78
2020/12/03 10:59:18;;;;;;;80.73;44.77;;;;;;;4.75;60.54;100231.38;5035863;28;20388;-77
2020/12/03 11:01:49;;;;;;;78.47;45.50;;;;;;;4.72;60.50;100227.22;5040457;28;20041;-78
2020/12/03 11:04:16;;;;;;;75.35;44.20;;;;;;;4.14;60.30;100116.00;5036790;28;20371;-78
2020/12/03 11:06:42;;;;;;;78.63;46.40;;;;;;;4.79;60.42;100224.94;5039834;28;20091;-79
2020/12/03 11:09:14;;;;;;;70.37;43.53;;;;;;;4.58;60.42;100179.59;5045715;28;20456;-79
2020/12/03 11:11:41;;;;;;;75.63;46.07;;;;;;;4.64;60.19;100185.16;5039991;28;20036;-79
2020/12/03 11:14:16;;;;;;;77.87;46.10;;;;;;;4.91;60.32;100223.94;5041289;28;20037;-78
2020/12/03 11:17:20;;;;;;;80.40;47.33;;;;;;;4.71;60.13;100177.63;5039265;28;20350;-78
2020/12/03 11:19:50;;;;;;;69.27;43.27;;;;;;;4.88;60.41;100202.41;5056739;28;20092;-78
2020/12/03 11:22:38;;;;;;;80.07;44.53;;;;;;;4.88;60.49;100202.41;5043611;28;20112;-78
2020/12/03 11:25:05;;;;;;;76.83;43.90;;;;;;;4.92;60.41;100202.03;5023018;28;20372;-79
2020/12/03 11:27:31;;;;;;;80.03;41.43;;;;;;;4.79;60.18;100170.00;5021653;28;20112;-79
2020/12/03 11:29:56;;;;;;;81.30;46.53;;;;;;;4.42;59.98;100096.31;5038124;28;20045;-79
2020/12/03 11:32:23;;;;;;;73.73;41.40;;;;;;;4.97;60.37;100192.03;5053518;28;20055;-78
2020/12/03 11:34:48;;;;;;;88.40;48.77;;;;;;;4.36;60.10;100095.00;5057333;28;20028;-79
2020/12/03 11:37:14;;;;;;;70.80;41.20;;;;;;;4.51;60.05;100111.28;5038694;28;20437;-79
2020/12/03 11:39:39;;;;;;;90.70;41.33;;;;;;;4.46;60.35;100119.50;5058136;28;20043;-79
2020/12/03 11:42:50;;;;;;;97.63;44.73;;;;;;;4.29;60.24;100091.25;5058488;28;20056;-80
2020/12/03 11:50:41;;;;;;;73.13;39.03;;;;;;;4.87;60.30;100164.13;5076198;28;20369;-78
2020/12/03 11:53:07;;;;;;;73.73;42.73;;;;;;;4.58;60.45;100124.66;5080299;28;20115;-79
2020/12/03 11:55:40;;;;;;;67.80;40.97;;;;;;;4.08;60.82;100064.22;5080499;28;20119;-79
2020/12/03 11:58:11;;;;;;;74.23;41.50;;;;;;;4.71;61.01;100162.78;5043665;23;20077;-79
2020/12/03 12:03:08;;;;;;;62.70;35.86;;;;;;;4.62;61.33;100160.06;5064179;22;20077;-80